Pearblossom, California
Current Conditions -  °F | °C
As of 1:53 AM on Tuesday 21 Oct 2014 (Local Time) from KPMD Reporting Station
Clear Clear  
Wind Chill: 58°   Ceiling: Unl
Heat Index: 58°   Visibility: 10mi
Dew Point: 51°   Wind: 28mph
Humidity: 78%   Direction: 300°WNW
Pressure: 29.98"   Gusts: 35mph
Location:  34.51°N, 117.91°W
Report Text: KPMD 210853Z 30024G30KT 10SM CLR 14/11 A2998 RMK AO2 PK WND 30030/0848 SLP130 T01440106 53004
Loading
Personal Weather Stations






























Interactive Weather Map
Tropical Storm Tracking
New forecast layout! Learn more

10-Day Weather Forecast

Advertisements
Track Severe Weather on mobile